Time;durP1;ratioP1;P1;durP2;ratioP2;P2;SDS_P1;SDS_P2;PMS_P1;PMS_P2;Temp;Humidity;BMP_temperature;BMP_pressure;BME280_temperature;BME280_humidity;BME280_pressure;Samples;Min_cycle;Max_cycle;Signal;HPM_P1;HPM_P2
2023/05/22 00:02:21;;;;;;;3.33;1.57;;;;;;;12.35;51.25;100286.14;1773697;79;21062;-63
2023/05/22 00:04:51;;;;;;;4.50;1.40;;;;;;;12.38;51.28;100282.08;1772159;79;21446;-67
2023/05/22 00:07:17;;;;;;;2.37;1.42;;;;;;;12.43;51.30;100282.72;1778264;79;21176;-64
2023/05/22 00:09:47;;;;;;;8.03;2.17;;;;;;;12.48;51.29;100280.73;1750250;79;21463;-62
2023/05/22 00:12:16;;;;;;;2.80;2.02;;;;;;;12.49;51.30;100278.06;1773116;79;21070;-67
2023/05/22 00:14:42;;;;;;;4.78;2.10;;;;;;;12.49;51.25;100280.69;1772217;79;21573;-62
2023/05/22 00:17:09;;;;;;;3.50;1.77;;;;;;;12.46;51.29;100279.95;1769660;79;20979;-64
2023/05/22 00:19:35;;;;;;;3.77;1.85;;;;;;;12.43;51.30;100272.24;1771871;79;21589;-62
2023/05/22 00:22:02;;;;;;;5.80;1.65;;;;;;;12.37;51.40;100275.99;1767841;79;21105;-64
2023/05/22 00:24:28;;;;;;;3.98;1.50;;;;;;;12.37;51.49;100275.15;1774616;79;21046;-62
2023/05/22 00:26:54;;;;;;;3.27;1.57;;;;;;;12.35;51.56;100272.62;1774358;78;20955;-67
2023/05/22 00:29:20;;;;;;;7.00;1.85;;;;;;;12.36;51.52;100277.39;1773046;79;21133;-62
2023/05/22 00:31:47;;;;;;;3.30;1.60;;;;;;;12.36;51.66;100277.39;1769726;79;20948;-62
2023/05/22 00:34:13;;;;;;;2.92;1.55;;;;;;;12.38;51.65;100275.09;1774627;79;21473;-65
2023/05/22 00:36:39;;;;;;;4.55;1.50;;;;;;;12.39;51.64;100273.31;1772440;79;21507;-63
2023/05/22 00:39:05;;;;;;;6.03;1.80;;;;;;;12.40;51.68;100273.70;1768215;79;21050;-62
2023/05/22 00:41:34;;;;;;;2.83;1.15;;;;;;;12.43;51.72;100268.31;1772828;79;21038;-61
2023/05/22 00:44:01;;;;;;;7.83;1.60;;;;;;;12.47;51.73;100273.81;1774378;79;21477;-63
2023/05/22 00:46:28;;;;;;;3.03;1.60;;;;;;;12.52;51.73;100277.08;1768741;79;21462;-61
2023/05/22 00:48:54;;;;;;;3.30;1.57;;;;;;;12.56;51.74;100264.21;1773905;79;21142;-61
2023/05/22 00:51:21;;;;;;;4.62;1.70;;;;;;;12.57;51.70;100261.97;1774493;79;21002;-63
2023/05/22 00:53:48;;;;;;;1.90;1.52;;;;;;;12.59;51.78;100265.38;1774584;79;21430;-61
2023/05/22 00:56:16;;;;;;;2.42;1.50;;;;;;;12.63;51.81;100268.69;1776138;79;20952;-61
2023/05/22 00:58:42;;;;;;;3.45;1.52;;;;;;;12.65;51.85;100263.77;1773860;79;21030;-62
2023/05/22 01:01:10;;;;;;;2.35;1.30;;;;;;;12.66;51.88;100255.02;1753682;79;21557;-61
2023/05/22 01:03:43;;;;;;;2.47;1.50;;;;;;;12.70;51.89;100256.55;1774287;79;21023;-61
2023/05/22 01:06:17;;;;;;;3.25;1.50;;;;;;;12.73;51.93;100255.09;1773019;79;21020;-62
2023/05/22 01:08:43;;;;;;;5.65;2.00;;;;;;;12.78;51.89;100254.03;1773945;79;21099;-62
2023/05/22 01:11:28;;;;;;;5.62;1.57;;;;;;;12.80;51.97;100252.17;1774570;79;21070;-62
2023/05/22 01:14:10;;;;;;;1.67;1.47;;;;;;;12.82;51.94;100258.19;1768459;79;20994;-62
2023/05/22 01:16:49;;;;;;;5.45;1.75;;;;;;;12.82;51.96;100260.81;1770485;79;20971;-63
2023/05/22 01:19:38;;;;;;;3.58;1.80;;;;;;;12.78;51.92;100262.73;1771475;79;21109;-61
2023/05/22 01:22:23;;;;;;;2.17;1.50;;;;;;;12.75;51.99;100258.49;1771311;80;21312;-63
2023/05/22 01:25:11;;;;;;;4.25;1.85;;;;;;;12.71;52.03;100256.92;1732979;81;20966;-62
2023/05/22 01:28:01;;;;;;;3.85;1.72;;;;;;;12.70;51.99;100260.48;1730456;81;21042;-62
2023/05/22 01:30:45;;;;;;;1.85;1.32;;;;;;;12.64;52.03;100263.86;1736698;81;21020;-62
2023/05/22 01:33:15;;;;;;;2.15;1.62;;;;;;;12.58;52.06;100266.31;1721644;81;21527;-66
2023/05/22 01:35:45;;;;;;;6.08;1.35;;;;;;;12.55;52.13;100258.59;1736492;81;21103;-62
2023/05/22 01:38:12;;;;;;;2.08;1.50;;;;;;;12.56;52.19;100260.28;1755635;80;21576;-61
2023/05/22 01:40:40;;;;;;;7.42;1.85;;;;;;;12.54;52.17;100259.50;1754259;80;21009;-61
2023/05/22 01:43:07;;;;;;;3.85;1.60;;;;;;;12.50;52.23;100254.03;1754997;80;20978;-67
2023/05/22 01:45:33;;;;;;;;;;;;;;;12.49;52.27;100257.55;1755472;80;20961;-63
2023/05/22 01:48:07;;;;;;;2.60;1.70;;;;;;;12.47;52.38;100258.10;1729910;81;20156;-62
2023/05/22 01:50:33;;;;;;;4.25;1.65;;;;;;;12.44;52.40;100251.70;1756591;80;21079;-62
2023/05/22 01:53:18;;;;;;;6.37;1.93;;;;;;;12.45;52.44;100254.70;1753577;80;21521;-62
2023/05/22 01:55:55;;;;;;;4.78;2.20;;;;;;;12.45;52.48;100253.39;1751653;81;20990;-61
2023/05/22 01:58:54;;;;;;;2.40;1.90;;;;;;;12.42;52.60;100254.84;1705970;81;21018;-61
2023/05/22 02:01:23;;;;;;;2.60;1.30;;;;;;;12.38;52.59;100251.52;1746012;79;21009;-63
2023/05/22 02:03:55;;;;;;;4.08;2.12;;;;;;;12.35;52.64;100248.17;1764454;79;21045;-63
2023/05/22 02:06:20;;;;;;;4.95;1.67;;;;;;;12.34;52.66;100247.80;1765236;80;21016;-62
2023/05/22 02:08:48;;;;;;;2.52;1.82;;;;;;;12.34;52.71;100249.11;1738530;81;21109;-63
2023/05/22 02:11:15;;;;;;;1.42;1.10;;;;;;;12.34;52.73;100246.48;1767952;80;21026;-62
2023/05/22 02:13:42;;;;;;;3.70;1.72;;;;;;;12.30;52.75;100247.94;1769568;80;21082;-62
2023/05/22 02:16:10;;;;;;;2.50;1.65;;;;;;;12.30;52.81;100254.48;1768666;80;20940;-64
2023/05/22 02:18:40;;;;;;;3.52;1.50;;;;;;;12.31;52.86;100253.55;1768254;80;21090;-63
2023/05/22 02:21:07;;;;;;;2.90;1.60;;;;;;;12.28;52.90;100253.70;1767132;80;21039;-61
2023/05/22 02:23:34;;;;;;;2.67;1.70;;;;;;;12.25;52.89;100251.23;1762640;80;21005;-62
2023/05/22 02:26:01;;;;;;;3.27;1.63;;;;;;;12.20;53.03;100245.34;1769481;80;21027;-62
2023/05/22 02:28:30;;;;;;;3.60;1.77;;;;;;;12.20;53.10;100247.96;1766961;80;21038;-62
2023/05/22 02:30:55;;;;;;;6.35;2.12;;;;;;;12.18;53.12;100243.25;1766234;80;20974;-64
2023/05/22 02:33:23;;;;;;;2.52;1.40;;;;;;;12.19;53.21;100235.80;1733169;80;21033;-64
2023/05/22 02:35:50;;;;;;;3.67;1.40;;;;;;;12.18;53.37;100241.94;1765684;80;21137;-61
2023/05/22 02:38:16;;;;;;;3.50;1.85;;;;;;;12.13;53.48;100242.63;1772686;79;20939;-64
2023/05/22 02:40:42;;;;;;;2.77;1.85;;;;;;;12.06;53.42;100247.73;1768939;80;21094;-64
2023/05/22 02:43:08;;;;;;;2.95;1.70;;;;;;;12.01;53.51;100238.78;1760365;80;20950;-62
2023/05/22 02:45:35;;;;;;;2.62;1.65;;;;;;;11.98;53.62;100239.38;1760094;80;20958;-62
2023/05/22 02:48:02;;;;;;;3.25;1.98;;;;;;;11.90;53.72;100224.02;1762808;80;21584;-62
2023/05/22 02:50:29;;;;;;;2.65;1.80;;;;;;;11.90;53.88;100225.78;1767944;80;21021;-62
2023/05/22 02:52:55;;;;;;;6.67;1.90;;;;;;;11.92;54.00;100234.42;1760590;80;21035;-61
2023/05/22 02:55:21;;;;;;;5.12;2.15;;;;;;;11.89;54.16;100231.95;1767623;80;21770;-62
2023/05/22 02:57:49;;;;;;;2.57;2.30;;;;;;;11.92;54.26;100231.81;1762691;80;21447;-61
2023/05/22 03:00:21;;;;;;;4.22;1.70;;;;;;;11.91;54.28;100230.13;1739926;79;21940;-67
2023/05/22 03:02:48;;;;;;;2.12;1.90;;;;;;;11.83;54.22;100232.58;1767990;80;21562;-62
2023/05/22 03:05:17;;;;;;;3.80;1.80;;;;;;;11.80;54.36;100224.86;1768263;80;20982;-62
2023/05/22 03:07:44;;;;;;;3.42;1.60;;;;;;;11.80;54.36;100230.09;1760452;80;21014;-61
2023/05/22 03:10:10;;;;;;;3.65;1.65;;;;;;;11.81;54.38;100223.09;1765037;80;21100;-62
2023/05/22 03:12:36;;;;;;;6.15;1.70;;;;;;;11.79;54.40;100212.71;1767360;80;20932;-61
2023/05/22 03:15:04;;;;;;;3.40;1.70;;;;;;;11.79;54.40;100212.71;1761475;80;21073;-63
2023/05/22 03:17:30;;;;;;;4.62;1.90;;;;;;;12.00;54.52;100226.63;1763794;80;21062;-64
2023/05/22 03:19:56;;;;;;;5.25;2.10;;;;;;;12.13;54.71;100223.00;1768695;80;21075;-62
2023/05/22 03:22:23;;;;;;;3.65;1.55;;;;;;;12.28;54.79;100219.66;1769005;80;20908;-62
2023/05/22 03:24:49;;;;;;;2.60;1.82;;;;;;;12.42;54.70;100218.18;1768605;80;21538;-62
2023/05/22 03:27:16;;;;;;;3.45;1.90;;;;;;;12.52;54.82;100224.23;1766249;80;21529;-67
2023/05/22 03:29:42;;;;;;;2.35;1.60;;;;;;;12.61;54.70;100218.16;1763225;80;20967;-63
2023/05/22 03:32:08;;;;;;;2.17;1.73;;;;;;;12.69;54.65;100219.48;1757149;80;21084;-68
2023/05/22 03:34:35;;;;;;;4.30;1.77;;;;;;;12.79;54.70;100224.28;1756398;79;21029;-62
2023/05/22 03:37:04;;;;;;;12.53;3.10;;;;;;;12.91;54.63;100215.81;1755008;80;20946;-70
2023/05/22 03:39:30;;;;;;;5.35;2.10;;;;;;;13.03;54.68;100217.00;1733381;81;20985;-62
2023/05/22 03:41:59;;;;;;;11.48;3.10;;;;;;;13.13;54.59;100216.91;1748913;80;21500;-62
2023/05/22 03:44:24;;;;;;;10.20;2.00;;;;;;;13.26;54.87;100215.88;1748415;80;21025;-68
2023/05/22 03:46:51;;;;;;;11.20;2.70;;;;;;;13.37;54.70;100216.19;1789332;78;21047;-63
2023/05/22 03:49:19;;;;;;;7.05;2.30;;;;;;;13.41;54.83;100210.71;1744850;80;21477;-65
2023/05/22 03:51:49;;;;;;;4.92;2.05;;;;;;;13.49;54.94;100210.30;1789790;78;20982;-67
2023/05/22 03:54:15;;;;;;;2.83;1.70;;;;;;;13.61;54.75;100214.93;1746961;80;21003;-62
2023/05/22 03:56:43;;;;;;;5.30;1.77;;;;;;;13.74;54.69;100212.96;1792134;78;20983;-62
2023/05/22 03:59:15;;;;;;;7.70;1.80;;;;;;;13.89;54.70;100217.39;1788275;78;21050;-63
2023/05/22 04:01:40;;;;;;;22.48;3.87;;;;;;;14.08;54.69;100213.32;1787695;78;21035;-65
2023/05/22 04:04:11;;;;;;;4.30;1.75;;;;;;;14.25;55.14;100215.88;1795356;78;20974;-63
2023/05/22 04:06:51;;;;;;;8.38;2.20;;;;;;;14.29;54.95;100213.95;1791349;78;20987;-68
2023/05/22 04:09:16;;;;;;;5.35;2.10;;;;;;;14.46;55.06;100211.70;1759331;80;20948;-65
2023/05/22 04:11:45;;;;;;;6.97;2.10;;;;;;;14.67;55.00;100209.20;1750128;80;20927;-65
2023/05/22 04:14:13;;;;;;;3.05;1.90;;;;;;;14.86;54.91;100205.54;1781319;78;21009;-62
2023/05/22 04:16:44;;;;;;;3.90;1.70;;;;;;;15.04;55.00;100199.23;1794867;78;21495;-62
2023/05/22 04:19:12;;;;;;;6.70;2.65;;;;;;;15.23;54.90;100200.30;1762322;80;21134;-62
2023/05/22 04:21:41;;;;;;;2.80;1.70;;;;;;;15.38;54.78;100196.77;1761658;80;21014;-62
2023/05/22 04:24:10;;;;;;;4.15;2.10;;;;;;;15.55;55.00;100193.60;1793300;79;20996;-62
2023/05/22 04:26:37;;;;;;;3.65;2.17;;;;;;;15.74;54.91;100196.84;1750794;80;21009;-66
2023/05/22 04:29:09;;;;;;;6.10;2.15;;;;;;;15.89;54.79;100195.89;1792687;78;20978;-62
2023/05/22 04:31:32;;;;;;;5.62;2.02;;;;;;;16.00;54.90;100194.39;1765119;80;21021;-63
2023/05/22 04:33:58;;;;;;;2.95;1.80;;;;;;;16.12;54.55;100189.66;1750227;80;21524;-62
2023/05/22 04:36:25;;;;;;;3.25;2.00;;;;;;;16.21;54.80;100198.29;1786726;78;20939;-62
2023/05/22 04:38:52;;;;;;;4.17;1.90;;;;;;;16.34;54.68;100193.94;1793581;78;21065;-67
2023/05/22 04:41:21;;;;;;;;;;;;;;;16.50;55.01;100192.98;1790350;78;20920;-63
2023/05/22 04:43:48;;;;;;;9.25;2.80;;;;;;;16.69;54.78;100187.33;1787965;78;20154;-63
2023/05/22 04:46:15;;;;;;;14.98;2.20;;;;;;;16.85;54.77;100180.14;1784719;78;20962;-63
2023/05/22 04:48:41;;;;;;;4.40;1.90;;;;;;;17.00;54.34;100182.27;1791656;78;20961;-64
2023/05/22 04:51:08;;;;;;;5.90;2.05;;;;;;;17.11;54.25;100179.75;1790925;78;20970;-66
2023/05/22 04:53:37;;;;;;;6.17;1.90;;;;;;;17.26;54.02;100182.30;1793851;78;21235;-63
2023/05/22 04:56:04;;;;;;;;;;;;;;;17.40;53.74;100186.16;1780736;78;21096;-64
2023/05/22 04:58:30;;;;;;;3.35;1.60;;;;;;;17.53;53.62;100181.73;1782120;78;20137;-62
2023/05/22 05:00:59;;;;;;;4.65;1.82;;;;;;;17.59;53.32;100182.63;1791722;78;21006;-64
2023/05/22 05:03:26;;;;;;;4.55;1.80;;;;;;;17.68;53.14;100182.47;1796157;78;21105;-62
2023/05/22 05:05:52;;;;;;;2.95;1.57;;;;;;;17.74;52.86;100186.47;1779693;78;21113;-68
2023/05/22 05:08:20;;;;;;;5.17;1.87;;;;;;;17.77;52.76;100180.98;1778459;78;21043;-62
2023/05/22 05:10:48;;;;;;;8.78;2.33;;;;;;;17.90;52.68;100180.52;1761579;78;21198;-62
2023/05/22 05:13:14;;;;;;;5.55;1.77;;;;;;;18.05;52.67;100186.03;1768651;79;20977;-64
2023/05/22 05:15:43;;;;;;;2.52;1.70;;;;;;;18.22;52.46;100186.63;1749878;80;20966;-65
2023/05/22 05:18:18;;;;;;;4.10;1.98;;;;;;;18.38;52.08;100181.93;1783080;78;20954;-62
2023/05/22 05:20:40;;;;;;;3.15;1.87;;;;;;;18.55;51.85;100181.54;1783301;78;21003;-62
2023/05/22 05:23:10;;;;;;;2.20;1.70;;;;;;;18.72;51.71;100180.78;1784670;78;21023;-62
2023/05/22 05:25:40;;;;;;;2.12;1.70;;;;;;;18.83;51.36;100181.34;1783209;78;20982;-62
2023/05/22 05:28:10;;;;;;;2.85;2.08;;;;;;;18.95;51.46;100177.29;1786603;78;21044;-62
2023/05/22 05:30:40;;;;;;;9.00;2.33;;;;;;;19.07;51.00;100181.30;1781658;78;21077;-63
2023/05/22 05:33:07;;;;;;;7.90;1.85;;;;;;;19.14;50.88;100184.69;1782700;78;20955;-63
2023/05/22 05:35:33;;;;;;;4.25;1.87;;;;;;;19.28;50.62;100181.00;1784298;78;21007;-62
2023/05/22 05:38:00;;;;;;;3.87;1.77;;;;;;;19.39;50.54;100177.05;1781208;78;21486;-63
2023/05/22 05:40:26;;;;;;;4.25;1.80;;;;;;;19.52;50.07;100181.39;1749077;80;21559;-62
2023/05/22 05:42:56;;;;;;;7.58;2.02;;;;;;;19.58;50.17;100179.62;1783200;79;21062;-62
2023/05/22 05:45:22;;;;;;;5.00;1.82;;;;;;;19.66;49.78;100178.09;1790406;78;20981;-66
2023/05/22 05:47:48;;;;;;;8.53;2.15;;;;;;;19.79;49.77;100184.58;1789629;78;21457;-62
2023/05/22 05:50:17;;;;;;;4.83;2.00;;;;;;;19.96;49.43;100187.22;1776877;78;21045;-62
2023/05/22 05:52:43;;;;;;;9.35;2.20;;;;;;;20.10;49.04;100184.80;1753076;80;20955;-63
2023/05/22 05:55:10;;;;;;;7.42;2.08;;;;;;;20.23;49.03;100180.22;1752594;80;20964;-63
2023/05/22 05:57:36;;;;;;;3.47;2.10;;;;;;;20.36;48.93;100180.05;1782522;78;21070;-63
2023/05/22 06:00:04;;;;;;;3.52;2.08;;;;;;;20.50;48.55;100181.59;1783044;78;21001;-61
2023/05/22 06:02:31;;;;;;;5.40;1.77;;;;;;;20.63;48.75;100175.67;1778621;79;21014;-66
2023/05/22 06:04:57;;;;;;;20.00;1.87;;;;;;;20.85;48.67;100179.22;1784397;78;21018;-66
2023/05/22 06:07:24;;;;;;;10.78;2.12;;;;;;;21.01;47.81;100168.52;1787521;78;21047;-65
2023/05/22 06:09:51;;;;;;;1.77;1.25;;;;;;;21.13;47.80;100171.12;1781520;78;21036;-63
2023/05/22 06:12:18;;;;;;;5.05;1.95;;;;;;;21.27;47.95;100169.95;1785573;78;21522;-67
2023/05/22 06:14:44;;;;;;;8.03;2.08;;;;;;;21.37;47.47;100170.86;1782494;78;21534;-64
2023/05/22 06:17:11;;;;;;;7.47;1.90;;;;;;;21.55;47.17;100165.31;1788245;78;20944;-67
2023/05/22 06:19:37;;;;;;;11.08;2.22;;;;;;;21.79;46.85;100164.16;1784897;78;21094;-63
2023/05/22 06:22:04;;;;;;;2.50;1.67;;;;;;;21.97;46.55;100165.21;1755009;79;21028;-67
2023/05/22 06:24:31;;;;;;;6.33;1.60;;;;;;;22.07;46.43;100158.12;1785805;78;20976;-66
2023/05/22 06:26:58;;;;;;;2.52;1.35;;;;;;;22.16;46.07;100160.94;1789427;78;20958;-65
2023/05/22 06:29:26;;;;;;;7.72;2.22;;;;;;;22.15;45.67;100161.41;1759463;80;21035;-66
2023/05/22 06:31:56;;;;;;;4.55;1.62;;;;;;;22.22;45.29;100161.75;1781129;79;21062;-65
2023/05/22 06:34:21;;;;;;;3.42;1.50;;;;;;;22.39;44.69;100158.41;1782025;80;21034;-66
2023/05/22 06:36:49;;;;;;;9.45;1.80;;;;;;;22.52;44.60;100161.66;1782680;78;20923;-67
2023/05/22 06:39:17;;;;;;;6.28;1.77;;;;;;;22.69;44.30;100159.30;1785938;78;21559;-64
2023/05/22 06:41:45;;;;;;;5.10;1.70;;;;;;;22.98;44.01;100154.81;1785376;79;21063;-64
2023/05/22 06:44:11;;;;;;;10.48;1.72;;;;;;;23.31;44.22;100150.00;1786413;79;20944;-67
2023/05/22 06:46:38;;;;;;;5.60;1.72;;;;;;;23.83;43.99;100149.05;1784391;80;21037;-65
2023/05/22 06:49:05;;;;;;;4.90;1.60;;;;;;;24.46;43.65;100152.31;1780702;79;21050;-65
2023/05/22 06:51:32;;;;;;;5.67;2.00;;;;;;;25.43;43.34;100150.58;1777508;80;21514;-65
2023/05/22 06:53:59;;;;;;;2.87;1.72;;;;;;;26.52;43.42;100140.03;1784639;78;21053;-64
2023/05/22 06:56:25;;;;;;;3.35;1.60;;;;;;;27.71;42.61;100141.24;1783503;79;21054;-66
2023/05/22 06:58:53;;;;;;;6.62;1.90;;;;;;;28.59;41.73;100126.70;1761281;79;21645;-65
2023/05/22 07:01:22;;;;;;;3.12;1.47;;;;;;;29.54;40.42;100137.43;1784956;78;21177;-66
2023/05/22 07:03:51;;;;;;;6.28;1.85;;;;;;;30.22;40.55;100135.44;1786764;78;21525;-67
2023/05/22 07:06:18;;;;;;;5.72;2.00;;;;;;;30.72;39.59;100132.30;1780684;78;21083;-65
2023/05/22 07:08:44;;;;;;;5.17;1.70;;;;;;;30.52;38.92;100130.78;1784644;78;21006;-65
2023/05/22 07:11:10;;;;;;;8.65;1.90;;;;;;;30.67;39.11;100132.05;1784234;78;21018;-65
2023/05/22 07:13:37;;;;;;;4.60;1.67;;;;;;;31.21;38.47;100131.50;1757261;80;21038;-66
2023/05/22 07:16:04;;;;;;;8.75;2.00;;;;;;;32.05;37.48;100133.23;1747354;80;21049;-68
2023/05/22 07:18:30;;;;;;;;;;;;;;;32.52;37.08;100130.16;1790103;78;21343;-65
2023/05/22 07:20:57;;;;;;;8.45;1.95;;;;;;;32.90;35.75;100122.78;1780359;78;20181;-65
2023/05/22 07:23:24;;;;;;;13.43;1.85;;;;;;;33.28;35.21;100132.98;1778551;78;21072;-67
2023/05/22 07:25:50;;;;;;;12.03;1.50;;;;;;;33.03;34.32;100133.62;1784473;80;20947;-65
2023/05/22 07:28:16;;;;;;;;;;;;;;;33.31;33.96;100119.02;1787022;78;20955;-66
2023/05/22 07:30:42;;;;;;;4.85;1.50;;;;;;;32.60;32.39;100127.75;1784104;80;20496;-66
2023/05/22 07:33:12;;;;;;;;;;;;;;;32.63;32.78;100125.48;1782673;78;21077;-65
2023/05/22 07:35:39;;;;;;;8.83;1.57;;;;;;;32.98;30.71;100127.97;1753665;80;20506;-68
2023/05/22 07:38:05;;;;;;;;;;;;;;;33.14;30.32;100130.28;1790443;78;20962;-69
2023/05/22 07:40:31;;;;;;;7.90;1.70;;;;;;;33.31;29.89;100123.91;1784078;78;20464;-67
2023/05/22 07:42:57;;;;;;;;;;;;;;;33.64;30.53;100118.96;1787201;78;20969;-68
2023/05/22 07:45:25;;;;;;;5.78;1.40;;;;;;;34.22;28.74;100125.67;1790822;78;20157;-66
2023/05/22 07:47:51;;;;;;;4.67;1.90;;;;;;;35.02;29.69;100119.69;1780035;78;21587;-66
2023/05/22 07:50:17;;;;;;;4.78;1.75;;;;;;;35.98;29.45;100107.88;1786802;78;21435;-65
2023/05/22 07:52:44;;;;;;;2.72;1.27;;;;;;;36.27;26.32;100125.27;1742440;80;21013;-66
2023/05/22 07:55:10;;;;;;;18.07;2.50;;;;;;;35.78;27.59;100108.98;1780459;77;21105;-66
2023/05/22 07:57:38;;;;;;;1.65;0.90;;;;;;;36.66;27.66;100110.28;1748232;80;21092;-67
2023/05/22 08:00:12;;;;;;;3.50;1.20;;;;;;;37.02;26.59;100108.41;1782972;79;21496;-66
2023/05/22 08:02:37;;;;;;;8.50;1.65;;;;;;;36.90;25.44;100113.00;1792096;78;21024;-66
2023/05/22 08:05:09;;;;;;;4.17;1.20;;;;;;;36.71;25.17;100113.09;1793522;78;21025;-66
2023/05/22 08:07:32;;;;;;;2.45;1.25;;;;;;;37.00;24.65;100111.89;1739135;81;21048;-66
2023/05/22 08:10:10;;;;;;;7.03;1.45;;;;;;;36.94;24.59;100108.73;1787230;79;22273;-68
2023/05/22 08:12:36;;;;;;;2.70;1.35;;;;;;;37.32;24.21;100115.63;1782135;79;21106;-66
2023/05/22 08:15:04;;;;;;;3.85;1.25;;;;;;;37.15;23.41;100116.34;1798037;78;21012;-68
2023/05/22 08:17:30;;;;;;;4.80;1.30;;;;;;;37.19;23.28;100112.06;1790125;78;20946;-66
2023/05/22 08:20:01;;;;;;;5.45;1.65;;;;;;;37.04;22.90;100110.91;1735043;80;21040;-66
2023/05/22 08:22:40;;;;;;;1.37;0.93;;;;;;;37.57;22.24;100121.64;1713190;81;20984;-66
2023/05/22 08:25:22;;;;;;;1.50;1.10;;;;;;;37.03;21.14;100112.81;1741907;81;21908;-65
2023/05/22 08:27:50;;;;;;;1.02;0.95;;;;;;;36.79;20.86;100116.55;1739859;81;21093;-66
2023/05/22 08:30:17;;;;;;;2.15;1.10;;;;;;;36.17;20.93;100107.34;1735008;81;21041;-65
2023/05/22 08:32:43;;;;;;;2.20;0.95;;;;;;;35.48;20.70;100108.06;1744861;81;21419;-64
2023/05/22 08:35:09;;;;;;;2.83;1.20;;;;;;;34.49;20.29;100110.08;1740551;81;20965;-63
2023/05/22 08:37:40;;;;;;;1.30;1.05;;;;;;;33.56;20.22;100109.19;1736725;81;21547;-65
2023/05/22 08:40:11;;;;;;;2.75;1.40;;;;;;;32.57;19.90;100110.08;1743913;81;20992;-63
2023/05/22 08:42:38;;;;;;;4.45;1.10;;;;;;;33.12;19.46;100094.48;1730872;81;20979;-75
2023/05/22 08:45:05;;;;;;;4.37;1.10;;;;;;;33.93;19.94;100112.16;1746086;81;21052;-70
2023/05/22 08:47:35;;;;;;;2.72;1.47;;;;;;;35.67;18.93;100117.89;1743287;81;20995;-65
2023/05/22 08:50:03;;;;;;;7.65;1.40;;;;;;;35.67;18.93;100117.89;1739277;81;21593;-67
2023/05/22 08:52:35;;;;;;;2.60;1.17;;;;;;;36.47;18.83;100101.34;1741292;81;21000;-69
2023/05/22 08:55:05;;;;;;;1.52;1.12;;;;;;;36.47;18.83;100101.34;1744376;81;21098;-69
2023/05/22 08:57:33;;;;;;;1.87;1.22;;;;;;;36.99;18.98;100104.77;1743198;81;20988;-70
2023/05/22 08:59:59;;;;;;;10.95;1.40;;;;;;;37.17;18.75;100094.34;1784306;78;21090;-67
2023/05/22 09:02:26;;;;;;;2.33;0.95;;;;;;;37.16;18.41;100094.84;1785111;79;21012;-66
2023/05/22 09:04:53;;;;;;;5.90;1.10;;;;;;;37.80;18.24;100096.75;1787776;79;21574;-68
2023/05/22 09:07:20;;;;;;;4.00;1.20;;;;;;;38.42;17.92;100092.75;1783648;80;21019;-68
2023/05/22 09:09:47;;;;;;;2.55;1.00;;;;;;;37.47;17.08;100096.88;1785281;78;21008;-67
2023/05/22 09:12:26;;;;;;;3.58;1.12;;;;;;;37.48;17.81;100079.51;1787449;78;21062;-69
2023/05/22 09:15:00;;;;;;;4.12;1.20;;;;;;;37.95;16.69;100087.55;1789218;78;21030;-66
2023/05/22 09:17:26;;;;;;;3.17;1.17;;;;;;;37.93;17.01;100086.93;1786163;78;21030;-68
2023/05/22 09:19:52;;;;;;;2.33;1.00;;;;;;;37.95;16.82;100078.02;1788343;78;21548;-65
2023/05/22 09:22:19;;;;;;;3.62;1.10;;;;;;;38.27;16.43;100092.48;1793617;78;20982;-65
2023/05/22 09:24:46;;;;;;;3.40;1.30;;;;;;;37.75;15.33;100080.30;1746568;81;20961;-65
2023/05/22 09:27:12;;;;;;;2.47;1.12;;;;;;;37.39;16.01;100080.90;1781111;78;21051;-66
2023/05/22 09:29:52;;;;;;;7.10;1.10;;;;;;;37.32;15.72;100072.05;1776223;79;20995;-67
2023/05/22 09:32:19;;;;;;;4.97;2.00;;;;;;;37.38;15.93;100073.81;1777402;79;21010;-69
2023/05/22 09:34:46;;;;;;;5.05;1.30;;;;;;;37.70;16.00;100068.78;1777268;79;21003;-65
2023/05/22 09:37:13;;;;;;;7.60;1.37;;;;;;;38.23;15.74;100074.94;1786785;78;20989;-67
2023/05/22 09:39:42;;;;;;;4.42;1.07;;;;;;;38.18;15.80;100063.97;1792642;78;20979;-65
2023/05/22 09:42:11;;;;;;;4.50;1.10;;;;;;;38.78;14.34;100074.23;1784396;79;21548;-68
2023/05/22 09:44:38;;;;;;;10.00;1.42;;;;;;;38.35;14.46;100081.17;1787732;80;20961;-65
2023/05/22 09:47:08;;;;;;;2.30;0.90;;;;;;;38.23;14.68;100074.94;1789367;78;20950;-65
2023/05/22 09:49:45;;;;;;;1.80;1.00;;;;;;;38.10;14.63;100076.64;1746551;80;21044;-66
2023/05/22 09:52:11;;;;;;;4.12;1.00;;;;;;;38.41;14.60;100072.02;1785770;78;20967;-70
2023/05/22 09:54:54;;;;;;;2.27;0.93;;;;;;;39.08;14.46;100062.14;1764831;80;20975;-65
2023/05/22 09:57:22;;;;;;;2.60;1.07;;;;;;;39.35;14.35;100063.08;1748226;81;21537;-67
2023/05/22 09:59:57;;;;;;;5.10;1.42;;;;;;;39.57;14.47;100056.21;1789668;78;21094;-69
2023/05/22 10:02:23;;;;;;;2.05;1.10;;;;;;;40.13;14.13;100060.09;1778560;78;20993;-63
2023/05/22 10:04:51;;;;;;;5.92;1.00;;;;;;;39.69;14.05;100048.41;1788324;78;21660;-64
2023/05/22 10:07:21;;;;;;;2.22;1.02;;;;;;;38.57;13.94;100057.25;1749084;80;21021;-68
2023/05/22 10:09:54;;;;;;;2.47;1.00;;;;;;;38.35;14.13;100055.80;1791525;78;20983;-70
2023/05/22 10:12:22;;;;;;;3.40;1.00;;;;;;;38.16;13.48;100057.92;1758833;80;21057;-63
2023/05/22 10:14:50;;;;;;;7.78;1.40;;;;;;;37.83;13.73;100052.66;1751533;80;21065;-67
2023/05/22 10:17:17;;;;;;;2.95;1.00;;;;;;;38.16;13.72;100051.11;1758375;78;20997;-66
2023/05/22 10:19:46;;;;;;;9.08;1.12;;;;;;;38.60;13.53;100045.87;1788457;78;20954;-66
2023/05/22 10:22:19;;;;;;;2.67;0.98;;;;;;;39.27;13.89;100040.28;1762894;80;21044;-68
2023/05/22 10:24:47;;;;;;;3.92;1.40;;;;;;;40.56;13.64;100044.63;1785638;78;21443;-66
2023/05/22 10:27:14;;;;;;;3.33;1.22;;;;;;;40.18;13.22;100051.94;1790401;78;21034;-75
2023/05/22 10:29:50;;;;;;;1.77;1.30;;;;;;;38.62;12.44;100055.97;1787492;78;20987;-65
2023/05/22 10:32:20;;;;;;;3.27;1.00;;;;;;;38.26;13.25;100038.99;1783721;78;20987;-72
2023/05/22 10:35:08;;;;;;;3.85;1.07;;;;;;;39.10;13.40;100034.02;1778799;78;20962;-68
2023/05/22 10:37:44;;;;;;;4.15;1.10;;;;;;;39.71;13.08;100033.41;1774447;79;21542;-70
2023/05/22 10:40:14;;;;;;;7.97;1.15;;;;;;;39.44;12.84;100038.02;1784010;78;21001;-70
2023/05/22 10:42:42;;;;;;;7.67;1.52;;;;;;;39.68;13.20;100024.36;1779549;78;21061;-67
2023/05/22 10:45:10;;;;;;;6.03;1.17;;;;;;;40.39;12.94;100020.16;1786695;79;21028;-67
2023/05/22 10:47:37;;;;;;;4.00;1.22;;;;;;;41.24;12.78;100015.20;1787359;78;21016;-74
2023/05/22 10:50:09;;;;;;;5.35;1.40;;;;;;;41.27;12.86;100014.66;1788962;79;21029;-65
2023/05/22 10:52:37;;;;;;;7.25;1.00;;;;;;;41.53;12.69;100017.77;1782236;78;20999;-70
2023/05/22 10:55:08;;;;;;;3.62;1.10;;;;;;;40.78;12.58;100011.69;1779441;78;21021;-70
2023/05/22 10:57:38;;;;;;;4.20;1.17;;;;;;;40.62;12.59;100018.94;1751153;80;21037;-69
2023/05/22 11:00:20;;;;;;;5.15;1.15;;;;;;;41.55;12.70;100008.74;1757002;80;22145;-70
2023/05/22 11:02:48;;;;;;;4.10;1.17;;;;;;;41.23;11.93;100013.02;1786980;78;21081;-67
2023/05/22 11:05:24;;;;;;;5.65;1.57;;;;;;;40.14;12.22;100007.07;1784324;78;20999;-62
2023/05/22 11:07:51;;;;;;;2.75;0.90;;;;;;;39.58;12.20;100007.34;1777314;79;21039;-62
2023/05/22 11:10:27;;;;;;;2.47;0.98;;;;;;;38.82;12.05;100011.78;1764286;79;21788;-68
2023/05/22 11:13:05;;;;;;;;;;;;;;;38.00;11.92;100029.02;1778834;79;21104;-62
2023/05/22 11:15:31;;;;;;;3.40;1.30;;;;;;;37.08;12.33;100005.39;1782720;78;20167;-63
2023/05/22 11:18:01;;;;;;;11.38;1.52;;;;;;;36.04;12.00;100003.69;1782426;78;21080;-62
2023/05/22 11:20:30;;;;;;;2.77;0.90;;;;;;;34.74;12.55;100007.59;1783499;79;21521;-62
2023/05/22 11:23:06;;;;;;;3.35;1.05;;;;;;;34.67;12.62;100002.75;1786547;79;21098;-65
2023/05/22 11:25:37;;;;;;;1.65;1.05;;;;;;;34.75;12.75;99995.67;1783202;79;21066;-62
2023/05/22 11:28:05;;;;;;;3.83;1.40;;;;;;;34.71;12.84;99980.92;1783643;80;20960;-63
2023/05/22 11:30:34;;;;;;;6.80;1.32;;;;;;;35.05;12.97;99965.11;1779335;80;21052;-63
2023/05/22 11:33:02;;;;;;;3.02;1.10;;;;;;;35.99;13.07;99989.97;1784355;79;20986;-62
2023/05/22 11:35:28;;;;;;;3.98;1.32;;;;;;;36.05;13.15;99980.94;1784368;80;20951;-64